createdAt,value
2022-08-25T00:12:05.297Z,61.45
2022-08-25T00:14:40.677Z,61.54
2022-08-25T00:17:14.378Z,61.07
2022-08-25T00:19:48.180Z,61.21
2022-08-25T00:22:22.278Z,60.95
2022-08-25T00:38:59.617Z,61.60
2022-08-25T00:41:42.258Z,61.36
2022-08-25T00:44:16.797Z,61.23
2022-08-25T00:46:56.279Z,61.54
2022-08-25T00:49:36.485Z,61.41
2022-08-25T00:52:22.283Z,61.36
2022-08-25T01:05:36.310Z,61.44
2022-08-25T01:08:11.724Z,61.49
2022-08-25T01:10:58.282Z,61.31
2022-08-25T01:13:39.025Z,61.64
2022-08-25T01:16:21.426Z,61.23
2022-08-25T01:18:57.943Z,61.34
2022-08-25T01:31:56.241Z,60.91
2022-08-25T01:34:41.283Z,60.87
2022-08-25T01:37:16.343Z,60.89
2022-08-25T01:39:50.335Z,61.09
2022-08-25T01:42:37.522Z,61.28
2022-08-25T01:59:00.306Z,61.37
2022-08-25T02:01:33.933Z,61.49
2022-08-25T02:04:09.142Z,61.23
2022-08-25T02:06:43.982Z,61.11
2022-08-25T02:09:22.284Z,61.07
2022-08-25T02:12:01.102Z,61.56
2022-08-25T02:24:15.243Z,61.35
2022-08-25T02:26:55.301Z,61.68
2022-08-25T02:29:28.839Z,61.74
2022-08-25T02:32:04.269Z,61.87
2022-08-25T02:34:37.745Z,61.65
2022-08-25T02:37:11.284Z,61.29
2022-08-25T02:50:25.324Z,61.50
2022-08-25T02:52:58.804Z,61.23
2022-08-25T02:55:34.549Z,61.34
2022-08-25T02:58:09.108Z,61.09
2022-08-25T03:00:43.341Z,61.20
2022-08-25T03:03:19.105Z,61.53
2022-08-25T03:19:35.986Z,61.25
2022-08-25T03:22:09.783Z,61.26
2022-08-25T03:24:43.283Z,61.59
2022-08-25T03:27:34.324Z,61.76
2022-08-25T03:30:17.224Z,61.43
2022-08-25T03:32:50.964Z,61.55
2022-08-25T03:45:41.360Z,61.70
2022-08-25T03:48:23.283Z,62.12
2022-08-25T03:50:56.846Z,61.69
2022-08-25T03:53:30.305Z,62.19
2022-08-25T03:56:04.245Z,62.10
2022-08-25T03:58:38.284Z,62.02
2022-08-25T04:11:53.129Z,62.36
2022-08-25T04:14:27.806Z,62.08
2022-08-25T04:17:01.396Z,62.47
2022-08-25T04:19:35.864Z,61.88
2022-08-25T04:22:10.786Z,62.37
2022-08-25T04:38:26.244Z,62.64
2022-08-25T04:41:09.266Z,62.35
2022-08-25T04:43:44.405Z,62.30
2022-08-25T04:46:22.406Z,62.43
2022-08-25T04:48:58.926Z,62.32
2022-08-25T04:51:43.243Z,62.48
2022-08-25T04:54:19.145Z,62.84
2022-08-25T05:04:08.323Z,62.82
2022-08-25T05:06:48.943Z,62.97
2022-08-25T05:09:25.373Z,62.40
2022-08-25T05:11:58.992Z,62.86
2022-08-25T05:14:33.434Z,62.61
2022-08-25T05:17:08.052Z,62.81
2022-08-25T05:19:42.291Z,62.91
2022-08-25T05:33:01.271Z,63.05
2022-08-25T05:35:34.891Z,62.68
2022-08-25T05:40:42.713Z,62.64
2022-08-25T05:43:10.442Z,63.23
2022-08-25T05:59:32.292Z,63.04
2022-08-25T06:02:06.113Z,62.86
2022-08-25T06:04:41.384Z,62.89
2022-08-25T06:07:16.212Z,63.15
2022-08-25T06:09:58.334Z,62.96
2022-08-25T06:12:34.073Z,63.31
2022-08-25T06:25:33.251Z,65.00
2022-08-25T06:28:14.313Z,65.13
2022-08-25T06:30:48.073Z,65.44
2022-08-25T06:33:22.232Z,65.21
2022-08-25T06:35:56.912Z,65.38
2022-08-25T06:38:31.252Z,65.51
2022-08-25T06:51:43.291Z,65.63
2022-08-25T06:54:16.859Z,65.75
2022-08-25T06:56:50.292Z,65.67
2022-08-25T06:59:24.032Z,65.13
2022-08-25T07:01:58.380Z,65.51
2022-08-25T07:04:34.333Z,64.81
2022-08-25T07:17:55.253Z,64.97
2022-08-25T07:20:37.174Z,65.58
2022-08-25T07:23:10.833Z,65.55
2022-08-25T07:25:44.274Z,65.36
2022-08-25T07:28:21.092Z,65.05
2022-08-25T07:30:59.060Z,65.29
2022-08-25T07:33:35.053Z,65.74
2022-08-25T07:46:31.330Z,65.92
2022-08-25T07:52:10.611Z,65.86
2022-08-25T07:54:45.272Z,65.42
2022-08-25T07:57:21.315Z,65.19
2022-08-25T08:12:52.471Z,65.52
2022-08-25T08:15:25.973Z,65.89
2022-08-25T08:18:11.331Z,65.60
2022-08-25T08:20:47.828Z,67.07
2022-08-25T08:23:23.439Z,66.39
2022-08-25T08:40:00.323Z,66.00
2022-08-25T08:43:18.090Z,66.25
2022-08-25T08:45:53.830Z,66.78
2022-08-25T08:48:51.313Z,66.40
2022-08-25T08:51:33.454Z,66.83
2022-08-25T08:54:23.116Z,66.19
2022-08-25T09:04:56.251Z,66.61
2022-08-25T09:07:47.202Z,66.81
2022-08-25T09:10:24.454Z,67.26
2022-08-25T09:13:17.312Z,66.33
2022-08-25T09:16:08.079Z,66.34
2022-08-25T09:19:04.311Z,65.44
2022-08-25T09:32:24.057Z,64.96
2022-08-25T09:35:01.539Z,65.82
2022-08-25T09:37:43.331Z,66.05
2022-08-25T09:40:22.672Z,65.97
2022-08-25T09:43:11.334Z,66.21
2022-08-25T09:59:57.667Z,64.42
2022-08-25T10:02:38.292Z,64.52
2022-08-25T10:05:23.718Z,64.00
2022-08-25T10:08:07.311Z,63.50
2022-08-25T10:10:45.912Z,62.98
2022-08-25T10:13:28.311Z,63.69
2022-08-25T10:27:05.052Z,61.78
2022-08-25T10:30:07.012Z,61.90
2022-08-25T10:33:22.312Z,61.51
2022-08-25T10:36:04.330Z,61.60
2022-08-25T10:38:50.852Z,61.79
2022-08-25T10:52:21.331Z,61.04
2022-08-25T10:55:07.831Z,61.04
2022-08-25T10:58:00.271Z,61.11
2022-08-25T11:00:48.110Z,60.74
2022-08-25T11:03:49.291Z,60.01
2022-08-25T11:06:39.071Z,60.31
2022-08-25T11:09:29.271Z,60.05
2022-08-25T11:19:27.251Z,58.92
2022-08-25T11:22:19.519Z,58.64
2022-08-25T11:25:11.651Z,58.80
2022-08-25T11:28:08.194Z,58.22
2022-08-25T11:30:42.685Z,57.91
2022-08-25T11:33:20.330Z,56.75
2022-08-25T11:46:59.351Z,57.31
2022-08-25T11:49:52.573Z,56.73
2022-08-25T11:52:54.333Z,56.30
2022-08-25T11:55:48.534Z,57.16
2022-08-25T11:58:52.313Z,57.18
2022-08-25T12:12:37.327Z,58.21
2022-08-25T12:15:21.571Z,57.80
2022-08-25T12:18:18.879Z,58.09
2022-08-25T12:21:29.171Z,57.80
2022-08-25T12:24:22.271Z,58.04
2022-08-25T12:27:01.310Z,57.60
2022-08-25T12:29:56.151Z,57.65
2022-08-25T12:40:12.348Z,56.19
2022-08-25T12:42:53.974Z,56.50
2022-08-25T12:45:41.967Z,56.58
2022-08-25T12:49:02.323Z,56.67
2022-08-25T12:51:54.213Z,56.64
2022-08-25T13:08:21.359Z,54.35
2022-08-25T13:11:03.811Z,54.13
2022-08-25T13:13:58.312Z,54.07
2022-08-25T13:16:32.133Z,53.80
2022-08-25T13:19:12.311Z,52.52
2022-08-25T13:32:35.603Z,54.04
2022-08-25T13:35:20.174Z,54.14
2022-08-25T13:38:01.369Z,54.39
2022-08-25T13:40:36.577Z,54.29
2022-08-25T13:43:18.554Z,54.16
2022-08-25T13:46:04.601Z,54.66
2022-08-25T13:48:49.445Z,54.56
2022-08-25T13:59:07.292Z,54.69
2022-08-25T14:01:54.499Z,54.46
2022-08-25T14:04:51.764Z,54.39
2022-08-25T14:07:36.351Z,53.75
2022-08-25T14:10:35.815Z,53.52
2022-08-25T14:13:36.379Z,53.33
2022-08-25T14:26:57.372Z,53.18
2022-08-25T14:29:31.153Z,53.03
2022-08-25T14:32:17.351Z,52.89
2022-08-25T14:34:50.940Z,52.79
2022-08-25T14:37:28.171Z,52.90
2022-08-25T14:54:10.291Z,52.58
2022-08-25T14:56:55.311Z,52.27
2022-08-25T14:59:28.791Z,52.19
2022-08-25T15:02:03.371Z,51.99
2022-08-25T15:04:38.718Z,51.61
2022-08-25T15:07:24.511Z,51.72
2022-08-25T15:10:00.881Z,52.04
2022-08-25T15:19:44.362Z,52.37
2022-08-25T15:22:19.781Z,52.18
2022-08-25T15:24:53.302Z,52.25
2022-08-25T15:27:31.025Z,52.14
2022-08-25T15:30:15.521Z,52.48
2022-08-25T15:32:49.940Z,52.72
2022-08-25T15:46:12.264Z,52.11
2022-08-25T15:48:53.301Z,52.50
2022-08-25T15:51:28.141Z,52.50
2022-08-25T15:54:03.341Z,52.57
2022-08-25T15:56:37.002Z,51.77
2022-08-25T15:59:12.300Z,51.84
2022-08-25T16:12:55.301Z,51.30
2022-08-25T16:15:31.525Z,50.90
2022-08-25T16:18:06.321Z,50.71
2022-08-25T16:20:46.471Z,50.87
2022-08-25T16:23:27.341Z,50.55
2022-08-25T16:26:04.801Z,50.45
2022-08-25T16:28:49.321Z,50.16
2022-08-25T16:42:01.742Z,48.29
2022-08-25T16:44:38.422Z,48.07
2022-08-25T16:47:14.017Z,47.78
2022-08-25T16:49:48.301Z,47.74
2022-08-25T16:52:32.081Z,47.00
2022-08-25T16:55:07.661Z,47.35
2022-08-25T17:07:58.301Z,47.86
2022-08-25T17:10:42.322Z,47.82
2022-08-25T17:13:15.841Z,47.77
2022-08-25T17:15:53.351Z,48.28
2022-08-25T17:18:27.382Z,48.59
2022-08-25T17:34:43.342Z,51.36
2022-08-25T17:37:16.858Z,52.05
2022-08-25T17:39:50.371Z,52.19
2022-08-25T17:42:31.327Z,52.17
2022-08-25T17:45:05.402Z,52.52
2022-08-25T17:47:38.841Z,52.78
2022-08-25T17:59:55.301Z,53.45
2022-08-25T18:02:43.905Z,53.91
2022-08-25T18:05:20.181Z,53.80
2022-08-25T18:08:01.341Z,53.82
2022-08-25T18:10:38.141Z,54.16
2022-08-25T18:13:12.341Z,54.02
2022-08-25T18:26:40.357Z,54.79
2022-08-25T18:29:14.793Z,54.64
2022-08-25T18:31:52.028Z,55.22
2022-08-25T18:34:26.863Z,54.95
2022-08-25T18:37:10.342Z,54.98
2022-08-25T18:39:43.865Z,54.98
2022-08-25T18:53:17.301Z,55.48
2022-08-25T18:56:02.183Z,55.62
2022-08-25T18:58:36.029Z,55.62
2022-08-25T19:01:12.635Z,55.88
2022-08-25T19:03:47.121Z,56.00
2022-08-25T19:06:23.321Z,56.37
2022-08-25T19:08:56.901Z,56.58
2022-08-25T19:21:48.475Z,56.28
2022-08-25T19:24:32.361Z,56.40
2022-08-25T19:27:06.161Z,57.01
2022-08-25T19:29:53.361Z,56.60
2022-08-25T19:32:27.670Z,57.18
2022-08-25T19:35:02.403Z,57.08
2022-08-25T19:48:16.341Z,57.17
2022-08-25T19:50:55.893Z,57.00
2022-08-25T19:53:36.322Z,57.33
2022-08-25T19:56:10.482Z,57.46
2022-08-25T19:58:45.602Z,57.25
2022-08-25T20:15:25.301Z,57.51
2022-08-25T20:18:06.328Z,57.91
2022-08-25T20:20:40.781Z,57.72
2022-08-25T20:23:15.341Z,57.33
2022-08-25T20:25:48.878Z,57.67
2022-08-25T20:28:24.321Z,57.60
2022-08-25T20:41:36.345Z,57.35
2022-08-25T20:44:09.862Z,57.43
2022-08-25T20:46:43.361Z,57.18
2022-08-25T20:49:18.144Z,57.74
2022-08-25T20:51:52.330Z,57.43
2022-08-25T20:54:25.941Z,57.18
2022-08-25T21:07:17.301Z,57.18
2022-08-25T21:09:58.342Z,57.82
2022-08-25T21:12:31.885Z,57.60
2022-08-25T21:15:05.381Z,57.61
2022-08-25T21:17:40.902Z,57.76
2022-08-25T21:20:17.351Z,58.07
2022-08-25T21:33:58.363Z,57.55
2022-08-25T21:36:32.204Z,57.66
2022-08-25T21:39:07.343Z,57.89
2022-08-25T21:41:42.461Z,57.78
2022-08-25T21:44:18.362Z,57.98
2022-08-25T21:46:57.201Z,57.72
2022-08-25T21:49:39.321Z,57.89
2022-08-25T22:02:50.372Z,58.27
2022-08-25T22:05:25.863Z,58.21
2022-08-25T22:07:59.541Z,58.38
2022-08-25T22:10:42.364Z,57.94
2022-08-25T22:13:23.582Z,58.31
2022-08-25T22:27:20.316Z,58.42
2022-08-25T22:29:58.936Z,58.65
2022-08-25T22:32:32.359Z,58.38
2022-08-25T22:35:08.084Z,58.54
2022-08-25T22:37:50.320Z,58.19
2022-08-25T22:40:25.439Z,58.38
2022-08-25T22:42:59.365Z,58.26
2022-08-25T22:56:13.338Z,58.35
2022-08-25T22:58:51.689Z,58.57
2022-08-25T23:01:27.358Z,58.53
2022-08-25T23:04:02.937Z,58.84
2022-08-25T23:06:37.398Z,58.93
2022-08-25T23:09:11.697Z,58.36
2022-08-25T23:22:02.307Z,58.80
2022-08-25T23:24:44.337Z,58.79
2022-08-25T23:27:21.137Z,58.39
2022-08-25T23:29:57.337Z,58.67
2022-08-25T23:32:31.349Z,58.73
2022-08-25T23:35:05.338Z,58.89
2022-08-25T23:48:18.814Z,58.91
2022-08-25T23:50:54.258Z,58.69
2022-08-25T23:53:28.329Z,58.93
2022-08-25T23:56:03.090Z,58.98
2022-08-25T23:58:46.344Z,58.50
